»·PEaware :: N6423L KSBD-KEMT

N6423L :: KSBD-KEMT

FLIGHT INFORMATION

Flight Status: Arrived
Operator: Privately registered:
United States
More flights under this callsign
Pilot: Alexander M. (19327)
Aircraft: PIPER PA-34 SENECA
(PA34)
More flights by this aircraft type
Origin: KSBD San Bernardino Intl
United States
Destination: KEMT El Monte
United States
More flights between these airports :: More routes between these airports
Route: +
File this flight plan on PilotEdge
Remarks:
Altitude:
(Current/Filed)
0ft
Speed:
(Current/Filed)
0kts
Departed: 17-Oct-18 10:21 AM
Arrived: 17-Oct-18 11:05 AM
Distance/Time
Traveled:
131nm/0:44
Distance/Time
To Go:
Arrived

Flight Plot

Page will automatically refresh every two minutes.


Map Options




Map Legend


Flown Route
Filed Route
Departure Airport
Arrival Airport
Navaid (VOR, NDB)
Fix

Horizontal Profiles

Position Reports

Time Latitude Longitude Heading Altitude Ground
Speed
17-Oct-18 10:22 34.092007 -117.245896 70 1134ft 89kts
17-Oct-18 10:23 34.099874 -117.207720 78 2324ft 125kts
17-Oct-18 10:24 34.118099 -117.189027 347 2534ft 67kts
17-Oct-18 10:25 34.123520 -117.218587 258 2627ft 118kts
17-Oct-18 10:26 34.112013 -117.255177 245 2809ft 103kts
17-Oct-18 10:27 34.097839 -117.279963 196 2209ft 88kts
17-Oct-18 10:28 34.085707 -117.265178 67 1432ft 84kts
17-Oct-18 10:29 34.093203 -117.242022 57 1134ft 20kts
17-Oct-18 10:30 34.095143 -117.240223 13 1134ft 8kts
17-Oct-18 10:31 34.096525 -117.241229 290 1134ft 4kts
17-Oct-18 10:32 34.096528 -117.241251 269 1134ft 0kts
17-Oct-18 10:33 34.096528 -117.241251 269 1134ft 0kts
17-Oct-18 10:34 34.094991 -117.242036 180 1134ft 23kts
17-Oct-18 10:35 34.093313 -117.247851 251 1134ft 22kts
17-Oct-18 10:36 34.091137 -117.250406 148 1134ft 11kts
17-Oct-18 10:37 34.097706 -117.226534 70 1715ft 115kts
17-Oct-18 10:38 34.106842 -117.188341 81 3068ft 123kts
17-Oct-18 10:39 34.129619 -117.177293 298 4174ft 137kts
17-Oct-18 10:40 34.128391 -117.227125 262 4773ft 167kts
17-Oct-18 10:41 34.120035 -117.278267 259 5523ft 167kts
17-Oct-18 10:42 34.111786 -117.332074 278 5849ft 172kts
17-Oct-18 10:43 34.120652 -117.387463 281 6056ft 173kts
17-Oct-18 10:44 34.120819 -117.445290 263 5654ft 181kts
17-Oct-18 10:45 34.124309 -117.498470 308 4837ft 142kts
17-Oct-18 10:46 34.152164 -117.503948 51 3944ft 120kts
17-Oct-18 10:47 34.166276 -117.472416 60 3143ft 99kts
17-Oct-18 10:48 34.177422 -117.437956 104 3478ft 129kts
17-Oct-18 10:49 34.150815 -117.407138 137 3517ft 150kts
17-Oct-18 10:50 34.125870 -117.370048 119 3629ft 150kts
17-Oct-18 10:51 34.093171 -117.350426 206 3583ft 156kts
17-Oct-18 10:52 34.076560 -117.395702 259 3587ft 174kts
17-Oct-18 10:53 34.067131 -117.451806 259 3565ft 180kts
17-Oct-18 10:54 34.067779 -117.508279 287 3564ft 179kts
17-Oct-18 10:55 34.085719 -117.560352 284 3547ft 180kts
17-Oct-18 10:56 34.087865 -117.616616 267 3517ft 179kts
17-Oct-18 10:57 34.084054 -117.663401 263 3580ft 180kts
17-Oct-18 10:58 34.085914 -117.717770 290 3532ft 182kts
17-Oct-18 10:59 34.101899 -117.771621 287 3499ft 184kts
17-Oct-18 11:00 34.112502 -117.824310 280 3451ft 158kts
17-Oct-18 11:01 34.113242 -117.868124 256 2602ft 132kts
17-Oct-18 11:02 34.110699 -117.908210 272 1666ft 121kts
17-Oct-18 11:03 34.113298 -117.946308 270 1412ft 129kts
17-Oct-18 11:04 34.104504 -117.981625 205 1775ft 104kts
17-Oct-18 11:05 34.096172 -118.003293 304 1442ft 89kts
17-Oct-18 11:06 34.096642 -118.027652 221 484ft 74kts
17-Oct-18 11:07 34.083914 -118.036083 206 295ft 17kts
17-Oct-18 11:08 34.083636 -118.035598 24 295ft 9kts
17-Oct-18 11:09 34.084438 -118.034105 144 294ft 9kts
17-Oct-18 11:10 34.083700 -118.034217 78 294ft 0kts
17-Oct-18 11:11 34.083700 -118.034217 78 294ft 0kts
17-Oct-18 11:12 34.083700 -118.034217 78 294ft 0kts
17-Oct-18 11:13 34.083700 -118.034217 78 294ft 0kts
17-Oct-18 11:14 34.083700 -118.034217 78 294ft 0kts
17-Oct-18 11:15 34.103165 -117.246408 90 1135ft 0kts
17-Oct-18 11:16 34.103165 -117.246408 90 1135ft 0kts
17-Oct-18 11:17 34.103165 -117.246408 90 1135ft 0kts
17-Oct-18 11:18 34.425821 -119.836717 189 14ft 0kts
17-Oct-18 11:19 34.425821 -119.836717 189 14ft 0kts
17-Oct-18 11:20 34.425821 -119.836717 189 14ft 0kts
17-Oct-18 11:21 34.425821 -119.836717 189 14ft 0kts

Navigation Log

Ident Type
1. KSBD Airport
2. KEMT Airport